createdAt,value
2023-08-07T00:00:39.735Z,16.32
2023-08-07T00:01:39.706Z,16.29
2023-08-07T00:02:39.678Z,16.34
2023-08-07T00:03:39.845Z,16.31
2023-08-07T00:04:39.661Z,16.32
2023-08-07T00:05:39.818Z,16.31
2023-08-07T00:06:39.644Z,16.32
2023-08-07T00:07:39.670Z,16.31
2023-08-07T00:08:39.620Z,16.31
2023-08-07T00:09:39.597Z,16.29
2023-08-07T00:10:39.605Z,16.29
2023-08-07T00:11:39.573Z,16.28
2023-08-07T00:12:39.568Z,16.31
2023-08-07T00:13:39.551Z,16.29
2023-08-07T00:14:39.560Z,16.29
2023-08-07T00:15:39.608Z,16.31
2023-08-07T00:16:39.514Z,16.31
2023-08-07T00:17:39.554Z,16.31
2023-08-07T00:18:39.497Z,16.29
2023-08-07T00:19:39.490Z,16.28
2023-08-07T00:20:39.489Z,16.31
2023-08-07T00:21:39.506Z,16.29
2023-08-07T00:22:39.452Z,16.31
2023-08-07T00:23:39.451Z,16.31
2023-08-07T00:24:39.474Z,16.29
2023-08-07T00:25:39.449Z,16.28
2023-08-07T00:26:39.480Z,16.32
2023-08-07T00:27:39.438Z,16.29
2023-08-07T00:28:39.393Z,16.31
2023-08-07T00:29:39.397Z,16.28
2023-08-07T00:30:39.425Z,16.29
2023-08-07T00:31:39.474Z,16.28
2023-08-07T00:32:39.384Z,16.31
2023-08-07T00:33:39.325Z,16.29
2023-08-07T00:34:39.314Z,16.31
2023-08-07T00:35:39.446Z,16.28
2023-08-07T00:36:39.300Z,16.29
2023-08-07T00:37:39.284Z,16.28
2023-08-07T00:38:39.296Z,16.31
2023-08-07T00:39:39.273Z,16.28
2023-08-07T00:40:39.323Z,16.29
2023-08-07T00:41:39.256Z,16.31
2023-08-07T00:42:39.263Z,16.31
2023-08-07T00:43:39.264Z,16.29
2023-08-07T00:44:39.249Z,16.31
2023-08-07T00:45:39.187Z,16.29
2023-08-07T00:46:39.291Z,16.29
2023-08-07T00:47:39.227Z,16.29
2023-08-07T00:48:39.186Z,16.28
2023-08-07T00:49:39.186Z,16.29
2023-08-07T00:50:47.210Z,16.29
2023-08-07T00:51:40.159Z,16.26
2023-08-07T00:52:39.131Z,16.25
2023-08-07T00:53:39.115Z,16.26
2023-08-07T00:54:39.113Z,16.26
2023-08-07T00:55:39.087Z,16.25
2023-08-07T00:56:39.126Z,16.25
2023-08-07T00:57:39.066Z,16.26
2023-08-07T00:58:39.072Z,16.26
2023-08-07T00:59:39.078Z,16.25
2023-08-07T01:00:39.142Z,16.28
2023-08-07T01:01:39.072Z,16.26
2023-08-07T01:02:39.107Z,16.25
2023-08-07T01:03:39.033Z,16.26
2023-08-07T01:04:39.017Z,16.25
2023-08-07T01:05:38.999Z,16.25
2023-08-07T01:06:39.000Z,16.26
2023-08-07T01:07:38.937Z,16.24
2023-08-07T01:08:39.014Z,16.25
2023-08-07T01:09:38.966Z,16.26
2023-08-07T01:10:38.922Z,16.26
2023-08-07T01:11:38.921Z,16.25
2023-08-07T01:12:38.890Z,16.26
2023-08-07T01:13:38.898Z,16.26
2023-08-07T01:14:38.872Z,16.26
2023-08-07T01:15:38.904Z,16.26
2023-08-07T01:16:38.932Z,16.25
2023-08-07T01:17:39.033Z,16.25
2023-08-07T01:18:38.843Z,16.25
2023-08-07T01:19:38.820Z,16.25
2023-08-07T01:20:38.839Z,16.25
2023-08-07T01:21:38.778Z,16.26
2023-08-07T01:22:38.756Z,16.25
2023-08-07T01:23:38.749Z,16.26
2023-08-07T01:24:38.738Z,16.26
2023-08-07T01:25:38.786Z,16.28
2023-08-07T01:26:38.710Z,16.26
2023-08-07T01:27:38.715Z,16.25
2023-08-07T01:28:38.718Z,16.24
2023-08-07T01:29:38.705Z,16.24
2023-08-07T01:30:38.934Z,16.24
2023-08-07T01:31:38.710Z,16.22
2023-08-07T01:32:38.751Z,16.24
2023-08-07T01:33:38.673Z,16.25
2023-08-07T01:34:38.670Z,16.21
2023-08-07T01:35:38.614Z,16.24
2023-08-07T01:36:38.610Z,16.25
2023-08-07T01:37:38.624Z,16.24
2023-08-07T01:38:38.586Z,16.24
2023-08-07T01:39:38.746Z,16.21
2023-08-07T01:40:38.589Z,16.24
2023-08-07T01:41:38.568Z,16.21
2023-08-07T01:42:38.633Z,16.21
2023-08-07T01:43:38.574Z,16.21
2023-08-07T01:44:38.573Z,16.21
2023-08-07T01:45:38.521Z,16.21
2023-08-07T01:46:38.597Z,16.18
2023-08-07T01:47:38.589Z,16.18
2023-08-07T01:48:38.614Z,16.17
2023-08-07T01:49:38.471Z,16.17
2023-08-07T01:50:38.451Z,16.17
2023-08-07T01:51:38.460Z,16.17
2023-08-07T01:52:38.421Z,16.17
2023-08-07T01:53:39.621Z,16.13
2023-08-07T01:54:38.409Z,16.17
2023-08-07T01:55:38.408Z,16.16
2023-08-07T01:56:38.413Z,16.17
2023-08-07T01:57:38.394Z,16.16
2023-08-07T01:58:38.405Z,16.16
2023-08-07T01:59:38.483Z,16.16
2023-08-07T02:00:38.452Z,16.17
2023-08-07T02:01:38.409Z,16.16
2023-08-07T02:02:38.416Z,16.13
2023-08-07T02:03:38.439Z,16.16
2023-08-07T02:04:38.336Z,16.13
2023-08-07T02:05:38.317Z,16.13
2023-08-07T02:06:38.281Z,16.12
2023-08-07T02:07:38.288Z,16.12
2023-08-07T02:08:38.255Z,16.13
2023-08-07T02:09:38.257Z,16.12
2023-08-07T02:10:38.246Z,16.12
2023-08-07T02:11:38.333Z,16.10
2023-08-07T02:12:38.232Z,16.10
2023-08-07T02:13:38.236Z,16.09
2023-08-07T02:14:38.234Z,16.09
2023-08-07T02:15:38.264Z,16.09
2023-08-07T02:16:38.249Z,16.12
2023-08-07T02:17:38.227Z,16.09
2023-08-07T02:18:38.152Z,16.10
2023-08-07T02:19:38.169Z,16.09
2023-08-07T02:20:38.183Z,16.08
2023-08-07T02:21:38.129Z,16.09
2023-08-07T02:22:38.139Z,16.09
2023-08-07T02:23:38.126Z,16.08
2023-08-07T02:24:38.091Z,16.08
2023-08-07T02:25:38.143Z,16.08
2023-08-07T02:26:38.198Z,16.08
2023-08-07T02:27:38.068Z,16.08
2023-08-07T02:28:38.158Z,16.06
2023-08-07T02:29:38.062Z,16.08
2023-08-07T02:30:38.083Z,16.06
2023-08-07T02:31:38.102Z,16.06
2023-08-07T02:32:38.053Z,16.06
2023-08-07T02:33:38.054Z,16.05
2023-08-07T02:34:37.992Z,16.06
2023-08-07T02:35:37.981Z,16.02
2023-08-07T02:36:37.976Z,16.05
2023-08-07T02:37:37.984Z,16.03
2023-08-07T02:38:37.959Z,16.05
2023-08-07T02:39:37.935Z,16.03
2023-08-07T02:40:37.906Z,16.05
2023-08-07T02:41:37.901Z,16.05
2023-08-07T02:42:37.900Z,16.05
2023-08-07T02:43:37.960Z,16.02
2023-08-07T02:44:37.891Z,16.05
2023-08-07T02:45:37.902Z,16.03
2023-08-07T02:46:37.867Z,16.03
2023-08-07T02:47:37.917Z,16.05
2023-08-07T02:48:37.864Z,16.03
2023-08-07T02:49:37.868Z,16.03
2023-08-07T02:50:37.810Z,16.03
2023-08-07T02:51:37.825Z,16.02
2023-08-07T02:52:37.794Z,16.03
2023-08-07T02:53:37.798Z,16.02
2023-08-07T02:54:37.917Z,16.00
2023-08-07T02:55:37.776Z,16.00
2023-08-07T02:56:37.813Z,16.03
2023-08-07T02:57:37.778Z,16.02
2023-08-07T02:58:37.795Z,16.03
2023-08-07T02:59:37.762Z,16.00
2023-08-07T03:00:37.702Z,16.02
2023-08-07T03:01:37.785Z,16.00
2023-08-07T03:02:37.746Z,16.02
2023-08-07T03:03:37.700Z,16.02
2023-08-07T03:04:37.661Z,15.99
2023-08-07T03:05:37.655Z,16.03
2023-08-07T03:06:37.654Z,16.00
2023-08-07T03:07:37.651Z,15.99
2023-08-07T03:08:37.744Z,16.00
2023-08-07T03:09:37.664Z,16.00
2023-08-07T03:10:37.644Z,16.00
2023-08-07T03:11:37.602Z,16.00
2023-08-07T03:12:37.577Z,16.02
2023-08-07T03:13:37.621Z,15.99
2023-08-07T03:14:37.674Z,15.99
2023-08-07T03:15:37.597Z,15.99
2023-08-07T03:16:37.547Z,16.00
2023-08-07T03:17:37.600Z,16.00
2023-08-07T03:18:37.528Z,16.00
2023-08-07T03:19:37.538Z,15.99
2023-08-07T03:20:37.497Z,16.00
2023-08-07T03:21:37.461Z,15.98
2023-08-07T03:22:37.467Z,15.98
2023-08-07T03:23:37.475Z,15.99
2023-08-07T03:24:37.471Z,16.00
2023-08-07T03:25:37.553Z,15.99
2023-08-07T03:26:37.453Z,16.00
2023-08-07T03:27:37.419Z,16.00
2023-08-07T03:28:37.433Z,15.99
2023-08-07T03:29:37.518Z,15.96
2023-08-07T03:30:37.436Z,15.99
2023-08-07T03:31:37.520Z,15.99
2023-08-07T03:32:37.427Z,15.99
2023-08-07T03:33:37.348Z,16.00
2023-08-07T03:34:37.366Z,16.00
2023-08-07T03:35:37.408Z,16.00
2023-08-07T03:36:37.356Z,15.99
2023-08-07T03:37:37.349Z,16.00
2023-08-07T03:38:37.333Z,15.99
2023-08-07T03:39:37.276Z,15.99
2023-08-07T03:40:37.412Z,15.98
2023-08-07T03:41:37.307Z,15.98
2023-08-07T03:42:37.314Z,15.98
2023-08-07T03:43:37.333Z,15.96
2023-08-07T03:44:37.247Z,15.98
2023-08-07T03:45:37.283Z,15.96
2023-08-07T03:46:37.219Z,15.96
2023-08-07T03:47:37.322Z,15.94
2023-08-07T03:48:37.219Z,15.94
2023-08-07T03:49:37.244Z,15.96
2023-08-07T03:50:37.205Z,15.94
2023-08-07T03:51:37.161Z,15.94
2023-08-07T03:52:37.165Z,15.94
2023-08-07T03:53:37.156Z,15.92
2023-08-07T03:54:37.180Z,15.94
2023-08-07T03:55:37.141Z,15.92
2023-08-07T03:56:37.134Z,15.94
2023-08-07T03:57:37.098Z,15.91
2023-08-07T03:58:37.142Z,15.92
2023-08-07T03:59:37.067Z,15.91
2023-08-07T04:00:37.070Z,15.92
2023-08-07T04:01:37.126Z,15.92
2023-08-07T04:02:37.099Z,15.91
2023-08-07T04:03:37.095Z,15.92
2023-08-07T04:04:37.015Z,15.91
2023-08-07T04:05:37.025Z,15.92
2023-08-07T04:06:37.028Z,15.91
2023-08-07T04:07:37.007Z,15.90
2023-08-07T04:08:37.013Z,15.90
2023-08-07T04:09:36.974Z,15.87
2023-08-07T04:10:36.948Z,15.88
2023-08-07T04:11:37.014Z,15.87
2023-08-07T04:12:36.953Z,15.88
2023-08-07T04:13:36.947Z,15.85
2023-08-07T04:14:37.023Z,15.85
2023-08-07T04:15:36.922Z,15.84
2023-08-07T04:16:36.887Z,15.84
2023-08-07T04:17:36.911Z,15.84
2023-08-07T04:18:36.889Z,15.85
2023-08-07T04:19:36.888Z,15.84
2023-08-07T04:20:36.833Z,15.84
2023-08-07T04:21:36.859Z,15.83
2023-08-07T04:22:36.835Z,15.83
2023-08-07T04:23:36.852Z,15.84
2023-08-07T04:24:36.808Z,15.84
2023-08-07T04:25:36.859Z,15.84
2023-08-07T04:26:36.809Z,15.87
2023-08-07T04:27:36.799Z,15.85
2023-08-07T04:28:36.780Z,15.85
2023-08-07T04:29:36.762Z,15.85
2023-08-07T04:30:36.742Z,15.84
2023-08-07T04:31:36.778Z,15.84
2023-08-07T04:32:36.840Z,15.84
2023-08-07T04:33:36.691Z,15.85
2023-08-07T04:34:36.861Z,15.85
2023-08-07T04:35:36.719Z,15.84
2023-08-07T04:36:36.886Z,15.87
2023-08-07T04:37:36.712Z,15.88
2023-08-07T04:38:36.673Z,15.88
2023-08-07T04:39:36.664Z,15.88
2023-08-07T04:40:36.651Z,15.90
2023-08-07T04:41:36.650Z,15.88
2023-08-07T04:42:36.620Z,15.88
2023-08-07T04:43:36.601Z,15.90
2023-08-07T04:44:36.594Z,15.91
2023-08-07T04:45:37.948Z,15.92
2023-08-07T04:46:36.665Z,15.92
2023-08-07T04:47:36.578Z,15.90
2023-08-07T04:48:36.619Z,15.92
2023-08-07T04:49:36.602Z,15.96
2023-08-07T04:50:36.526Z,15.96
2023-08-07T04:51:36.531Z,15.98
2023-08-07T04:52:36.513Z,15.99
2023-08-07T04:53:36.485Z,15.99
2023-08-07T04:54:36.476Z,16.00
2023-08-07T04:55:36.503Z,15.99
2023-08-07T04:56:36.449Z,16.00
2023-08-07T04:57:36.454Z,16.02
2023-08-07T04:58:36.466Z,16.02
2023-08-07T04:59:36.439Z,16.02
2023-08-07T05:00:36.443Z,16.02
2023-08-07T05:01:36.385Z,16.03
2023-08-07T05:02:36.539Z,16.02
2023-08-07T05:03:36.515Z,16.03
2023-08-07T05:04:36.414Z,16.02
2023-08-07T05:05:36.412Z,16.02
2023-08-07T05:06:36.412Z,16.02
2023-08-07T05:07:36.397Z,16.02
2023-08-07T05:08:36.497Z,16.00
2023-08-07T05:09:36.406Z,15.99
2023-08-07T05:10:36.339Z,15.98
2023-08-07T05:11:36.331Z,15.98
2023-08-07T05:12:36.378Z,15.98
2023-08-07T05:13:36.306Z,15.98
2023-08-07T05:14:36.484Z,15.99
2023-08-07T05:15:36.303Z,15.96
2023-08-07T05:16:36.329Z,15.99
2023-08-07T05:17:36.326Z,16.00
2023-08-07T05:18:36.269Z,16.00
2023-08-07T05:19:36.249Z,16.00
2023-08-07T05:20:36.241Z,16.03
2023-08-07T05:21:36.264Z,16.02
2023-08-07T05:22:36.222Z,16.03
2023-08-07T05:23:36.295Z,16.02
2023-08-07T05:24:36.199Z,16.03
2023-08-07T05:25:36.172Z,16.03
2023-08-07T05:26:36.157Z,16.05
2023-08-07T05:27:36.215Z,16.05
2023-08-07T05:28:36.145Z,16.06
2023-08-07T05:29:36.113Z,16.05
2023-08-07T05:30:36.123Z,16.05
2023-08-07T05:31:36.137Z,16.03
2023-08-07T05:32:36.159Z,16.08
2023-08-07T05:33:36.057Z,16.06
2023-08-07T05:34:36.042Z,16.05
2023-08-07T05:35:36.041Z,16.05
2023-08-07T05:36:36.024Z,16.06
2023-08-07T05:37:36.052Z,16.05
2023-08-07T05:38:36.051Z,16.08
2023-08-07T05:39:36.098Z,16.03
2023-08-07T05:40:35.995Z,16.06
2023-08-07T05:41:35.956Z,16.05
2023-08-07T05:42:36.204Z,16.06
2023-08-07T05:43:35.970Z,16.08
2023-08-07T05:44:36.029Z,16.06
2023-08-07T05:45:35.942Z,16.06
2023-08-07T05:46:36.086Z,16.06
2023-08-07T05:47:35.963Z,16.08
2023-08-07T05:48:35.908Z,16.09
2023-08-07T05:49:35.870Z,16.08
2023-08-07T05:50:35.868Z,16.10
2023-08-07T05:51:35.865Z,16.12
2023-08-07T05:52:35.876Z,16.13
2023-08-07T05:53:35.874Z,16.17
2023-08-07T05:54:35.813Z,16.18
2023-08-07T05:55:35.925Z,16.21
2023-08-07T05:56:35.817Z,16.24
2023-08-07T05:57:35.812Z,16.25
2023-08-07T05:58:35.863Z,16.26
2023-08-07T05:59:35.785Z,16.29
2023-08-07T06:00:35.802Z,16.28
2023-08-07T06:01:35.836Z,16.31
2023-08-07T06:02:35.809Z,16.37
2023-08-07T06:03:35.777Z,16.37
2023-08-07T06:04:35.806Z,16.37
2023-08-07T06:05:35.736Z,16.39
2023-08-07T06:06:35.771Z,16.41
2023-08-07T06:07:35.698Z,16.44
2023-08-07T06:08:35.715Z,16.49
2023-08-07T06:09:35.708Z,16.50
2023-08-07T06:10:35.704Z,16.54
2023-08-07T06:11:35.817Z,16.51
2023-08-07T06:12:35.675Z,16.51
2023-08-07T06:13:36.714Z,16.54
2023-08-07T06:14:35.649Z,16.57
2023-08-07T06:15:35.699Z,16.58
2023-08-07T06:16:35.653Z,16.64
2023-08-07T06:17:35.640Z,16.74
2023-08-07T06:18:35.616Z,16.77
2023-08-07T06:19:35.600Z,16.80
2023-08-07T06:20:35.532Z,16.84
2023-08-07T06:21:35.517Z,16.87
2023-08-07T06:22:35.552Z,16.87
2023-08-07T06:23:35.558Z,16.89
2023-08-07T06:24:35.513Z,16.95
2023-08-07T06:25:35.486Z,16.98
2023-08-07T06:26:35.477Z,17.04
2023-08-07T06:27:35.457Z,17.07
2023-08-07T06:28:35.519Z,17.12
2023-08-07T06:29:35.643Z,17.12
2023-08-07T06:30:35.458Z,17.16
2023-08-07T06:31:35.461Z,17.19
2023-08-07T06:32:35.652Z,17.20
2023-08-07T06:33:35.490Z,17.23
2023-08-07T06:34:35.396Z,17.22
2023-08-07T06:35:35.383Z,17.22
2023-08-07T06:36:35.395Z,17.22
2023-08-07T06:37:35.448Z,17.23
2023-08-07T06:38:35.392Z,17.28
2023-08-07T06:39:35.368Z,17.34
2023-08-07T06:40:35.396Z,17.39
2023-08-07T06:41:35.516Z,17.44
2023-08-07T06:42:35.365Z,17.50
2023-08-07T06:43:35.358Z,17.54
2023-08-07T06:44:35.303Z,17.57
2023-08-07T06:45:35.267Z,17.60
2023-08-07T06:46:35.285Z,17.63
2023-08-07T06:47:35.325Z,17.69
2023-08-07T06:48:35.270Z,17.72
2023-08-07T06:49:35.229Z,17.76
2023-08-07T06:50:35.227Z,17.87
2023-08-07T06:51:35.335Z,17.91
2023-08-07T06:52:35.259Z,17.95
2023-08-07T06:53:35.191Z,17.98
2023-08-07T06:54:35.182Z,18.02
2023-08-07T06:55:35.211Z,18.08
2023-08-07T06:56:35.152Z,18.09
2023-08-07T06:57:35.268Z,18.11
2023-08-07T06:58:35.198Z,18.13
2023-08-07T06:59:35.140Z,18.13
2023-08-07T07:00:35.211Z,18.16
2023-08-07T07:01:35.281Z,18.18
2023-08-07T07:02:35.168Z,18.24
2023-08-07T07:03:35.206Z,18.26
2023-08-07T07:04:35.363Z,18.31
2023-08-07T07:05:35.150Z,18.36
2023-08-07T07:06:35.092Z,18.45
2023-08-07T07:07:35.061Z,18.51
2023-08-07T07:08:35.025Z,18.57
2023-08-07T07:09:35.027Z,18.63
2023-08-07T07:10:35.026Z,18.64
2023-08-07T07:11:35.013Z,18.68
2023-08-07T07:12:35.029Z,18.68
2023-08-07T07:13:34.984Z,18.71
2023-08-07T07:14:34.972Z,18.68
2023-08-07T07:15:35.001Z,18.66
2023-08-07T07:16:35.009Z,18.66
2023-08-07T07:17:34.962Z,18.64
2023-08-07T07:18:35.099Z,18.64
2023-08-07T07:19:34.921Z,18.63
2023-08-07T07:20:34.911Z,18.64
2023-08-07T07:21:34.892Z,18.63
2023-08-07T07:22:34.960Z,18.66
2023-08-07T07:23:34.875Z,18.70
2023-08-07T07:24:34.833Z,18.81
2023-08-07T07:25:34.867Z,18.89
2023-08-07T07:26:34.890Z,19.00
2023-08-07T07:27:34.831Z,19.11
2023-08-07T07:28:34.795Z,19.24
2023-08-07T07:29:34.824Z,19.38
2023-08-07T07:30:34.821Z,19.49
2023-08-07T07:31:34.849Z,19.63
2023-08-07T07:32:34.887Z,19.66
2023-08-07T07:33:34.797Z,19.66
2023-08-07T07:34:34.995Z,19.66
2023-08-07T07:35:34.797Z,19.67
2023-08-07T07:36:34.753Z,19.74
2023-08-07T07:37:34.729Z,19.74
2023-08-07T07:38:34.706Z,19.67
2023-08-07T07:39:34.737Z,19.63
2023-08-07T07:40:34.687Z,19.63
2023-08-07T07:41:34.704Z,19.62
2023-08-07T07:42:34.683Z,19.60
2023-08-07T07:43:34.650Z,19.56
2023-08-07T07:44:34.665Z,19.48
2023-08-07T07:45:34.661Z,19.45
2023-08-07T07:46:34.708Z,19.42
2023-08-07T07:47:34.630Z,19.42
2023-08-07T07:48:34.659Z,19.47
2023-08-07T07:49:34.584Z,19.49
2023-08-07T07:50:34.578Z,19.55
2023-08-07T07:51:34.662Z,19.59
2023-08-07T07:52:34.548Z,19.59
2023-08-07T07:53:34.599Z,19.55
2023-08-07T07:54:34.517Z,19.48
2023-08-07T07:55:34.709Z,19.45
2023-08-07T07:56:34.573Z,19.44
2023-08-07T07:57:34.799Z,19.39
2023-08-07T07:58:34.552Z,19.35
2023-08-07T07:59:34.482Z,19.34
2023-08-07T08:00:34.611Z,19.32
2023-08-07T08:01:34.511Z,19.32
2023-08-07T08:02:34.510Z,19.29
2023-08-07T08:03:34.510Z,19.35
2023-08-07T08:04:34.511Z,19.41
2023-08-07T08:05:34.499Z,19.49
2023-08-07T08:06:34.428Z,19.55
2023-08-07T08:07:34.442Z,19.57
2023-08-07T08:08:34.432Z,19.62
2023-08-07T08:09:34.423Z,19.64
2023-08-07T08:10:34.376Z,19.74
2023-08-07T08:11:34.542Z,19.82
2023-08-07T08:12:34.539Z,19.96
2023-08-07T08:13:34.418Z,20.14
2023-08-07T08:14:46.902Z,20.39
2023-08-07T08:15:35.463Z,20.68
2023-08-07T08:16:34.335Z,20.85
2023-08-07T08:17:34.349Z,21.00
2023-08-07T08:18:34.323Z,21.15
2023-08-07T08:19:45.542Z,21.41
2023-08-07T08:20:35.398Z,21.62
2023-08-07T08:21:34.286Z,21.78
2023-08-07T08:22:34.250Z,21.92
2023-08-07T08:23:34.366Z,21.99
2023-08-07T08:24:34.236Z,22.07
2023-08-07T08:25:34.226Z,22.06
2023-08-07T08:26:34.255Z,22.01
2023-08-07T08:27:34.224Z,21.91
2023-08-07T08:28:34.286Z,21.83
2023-08-07T08:29:34.275Z,21.77
2023-08-07T08:30:34.186Z,21.72
2023-08-07T08:31:34.342Z,21.60
2023-08-07T08:32:34.228Z,21.45
2023-08-07T08:33:34.211Z,21.28
2023-08-07T08:34:34.197Z,21.17
2023-08-07T08:35:34.158Z,21.04
2023-08-07T08:36:34.127Z,20.98
2023-08-07T08:37:34.103Z,20.95
2023-08-07T08:38:34.069Z,20.96
2023-08-07T08:39:34.114Z,20.92
2023-08-07T08:40:35.065Z,20.92
2023-08-07T08:41:34.077Z,20.98
2023-08-07T08:42:34.073Z,20.95
2023-08-07T08:43:34.059Z,21.04
2023-08-07T08:44:34.044Z,21.15
2023-08-07T08:45:34.020Z,21.23
2023-08-07T08:46:34.089Z,21.30
2023-08-07T08:47:34.092Z,21.28
2023-08-07T08:48:33.987Z,21.29
2023-08-07T08:49:34.099Z,21.30
2023-08-07T08:50:33.968Z,21.30
2023-08-07T08:51:33.958Z,21.32
2023-08-07T08:52:33.936Z,21.40
2023-08-07T08:53:33.950Z,21.56
2023-08-07T08:54:33.998Z,21.83
2023-08-07T08:55:34.081Z,22.12
2023-08-07T08:56:33.976Z,22.30
2023-08-07T08:57:33.882Z,22.26
2023-08-07T08:58:33.955Z,22.19
2023-08-07T08:59:33.870Z,22.26
2023-08-07T09:00:33.878Z,22.31
2023-08-07T09:01:33.917Z,22.33
2023-08-07T09:02:33.928Z,22.44
2023-08-07T09:03:33.954Z,22.43
2023-08-07T09:04:33.808Z,22.40
2023-08-07T09:05:33.810Z,22.63
2023-08-07T09:06:33.762Z,22.93
2023-08-07T09:07:33.792Z,23.25
2023-08-07T09:08:33.832Z,23.64
2023-08-07T09:09:33.771Z,23.88
2023-08-07T09:10:33.784Z,24.21
2023-08-07T09:11:33.745Z,24.56
2023-08-07T09:12:33.763Z,24.69
2023-08-07T09:13:33.793Z,24.74
2023-08-07T09:14:33.705Z,24.85
2023-08-07T09:15:33.712Z,24.88
2023-08-07T09:16:33.764Z,24.96
2023-08-07T09:17:33.763Z,25.03
2023-08-07T09:18:33.699Z,25.07
2023-08-07T09:19:33.681Z,25.37
2023-08-07T09:20:33.642Z,25.43
2023-08-07T09:21:33.646Z,25.61
2023-08-07T09:22:33.643Z,25.81
2023-08-07T09:23:33.599Z,25.76
2023-08-07T09:24:33.598Z,25.77
2023-08-07T09:25:33.599Z,25.73
2023-08-07T09:26:33.618Z,25.55
2023-08-07T09:27:33.659Z,25.55
2023-08-07T09:28:33.583Z,25.58
2023-08-07T09:29:33.549Z,25.80
2023-08-07T09:30:33.610Z,26.03
2023-08-07T09:31:33.523Z,26.22
2023-08-07T09:32:33.547Z,26.16
2023-08-07T09:33:33.488Z,26.01
2023-08-07T09:34:33.517Z,26.16
2023-08-07T09:35:33.502Z,26.39
2023-08-07T09:36:33.472Z,26.33
2023-08-07T09:37:33.475Z,26.30
2023-08-07T09:38:33.528Z,26.23
2023-08-07T09:39:33.549Z,26.08
2023-08-07T09:40:33.443Z,25.99
2023-08-07T09:41:33.427Z,25.88
2023-08-07T09:42:34.152Z,25.68
2023-08-07T09:43:33.436Z,25.54
2023-08-07T09:44:33.380Z,25.31
2023-08-07T09:45:33.386Z,25.12
2023-08-07T09:46:33.368Z,24.99
2023-08-07T09:47:33.373Z,24.96
2023-08-07T09:48:33.365Z,24.88
2023-08-07T09:49:33.349Z,24.74
2023-08-07T09:50:33.441Z,24.43
2023-08-07T09:51:33.292Z,24.18
2023-08-07T09:52:33.343Z,23.89
2023-08-07T09:53:33.301Z,23.66
2023-08-07T09:54:33.340Z,23.51
2023-08-07T09:55:33.310Z,23.39
2023-08-07T09:56:33.240Z,23.26
2023-08-07T09:57:33.278Z,23.14
2023-08-07T09:58:33.260Z,23.07
2023-08-07T09:59:33.268Z,23.13
2023-08-07T10:00:33.210Z,23.21
2023-08-07T10:01:33.299Z,23.26
2023-08-07T10:02:33.359Z,23.20
2023-08-07T10:03:33.495Z,23.10
2023-08-07T10:04:33.266Z,23.33
2023-08-07T10:05:33.154Z,23.58
2023-08-07T10:06:33.155Z,24.03
2023-08-07T10:07:33.172Z,24.37
2023-08-07T10:08:33.151Z,24.62
2023-08-07T10:09:33.132Z,24.81
2023-08-07T10:10:33.116Z,25.07
2023-08-07T10:11:33.207Z,25.41
2023-08-07T10:12:33.069Z,25.73
2023-08-07T10:13:38.993Z,26.08
2023-08-07T10:14:34.053Z,26.29
2023-08-07T10:15:33.135Z,26.52
2023-08-07T10:16:33.118Z,26.93
2023-08-07T10:17:33.120Z,27.34
2023-08-07T10:18:33.064Z,27.73
2023-08-07T10:19:33.024Z,28.01
2023-08-07T10:20:33.071Z,28.23
2023-08-07T10:21:33.004Z,28.43
2023-08-07T10:22:32.969Z,28.60
2023-08-07T10:23:33.056Z,28.22
2023-08-07T10:24:32.954Z,28.08
2023-08-07T10:25:33.080Z,27.88
2023-08-07T10:26:33.035Z,27.83
2023-08-07T10:27:33.060Z,27.76
2023-08-07T10:28:32.883Z,27.50
2023-08-07T10:29:32.930Z,27.64
2023-08-07T10:30:32.905Z,27.53
2023-08-07T10:31:32.920Z,27.91
2023-08-07T10:32:32.917Z,28.34
2023-08-07T10:33:32.874Z,28.57
2023-08-07T10:34:32.826Z,28.72
2023-08-07T10:35:32.863Z,28.96
2023-08-07T10:36:32.848Z,29.18
2023-08-07T10:37:33.136Z,29.37
2023-08-07T10:38:32.809Z,29.40
2023-08-07T10:39:32.804Z,29.37
2023-08-07T10:40:32.763Z,29.28
2023-08-07T10:41:32.800Z,29.12
2023-08-07T10:42:32.834Z,28.90
2023-08-07T10:43:32.766Z,28.67
2023-08-07T10:44:32.733Z,28.52
2023-08-07T10:45:32.730Z,28.31
2023-08-07T10:46:32.792Z,28.18
2023-08-07T10:47:32.849Z,28.08
2023-08-07T10:48:32.817Z,27.95
2023-08-07T10:49:32.681Z,27.93
2023-08-07T10:50:32.692Z,28.01
2023-08-07T10:51:32.699Z,27.95
2023-08-07T10:52:32.646Z,27.76
2023-08-07T10:53:32.639Z,27.68
2023-08-07T10:54:32.602Z,27.63
2023-08-07T10:55:32.714Z,27.61
2023-08-07T10:56:32.557Z,27.63
2023-08-07T10:57:32.590Z,27.72
2023-08-07T10:58:32.587Z,27.86
2023-08-07T10:59:32.523Z,27.82
2023-08-07T11:00:32.726Z,27.55
2023-08-07T11:01:32.586Z,27.30
2023-08-07T11:02:32.598Z,27.47
2023-08-07T11:03:32.477Z,27.75
2023-08-07T11:04:32.509Z,28.15
2023-08-07T11:05:32.503Z,27.98
2023-08-07T11:06:32.684Z,27.66
2023-08-07T11:07:32.567Z,27.35
2023-08-07T11:08:32.448Z,27.05
2023-08-07T11:09:32.451Z,26.71
2023-08-07T11:10:32.410Z,27.01
2023-08-07T11:11:32.648Z,27.37
2023-08-07T11:12:32.400Z,27.68
2023-08-07T11:13:32.544Z,28.09
2023-08-07T11:14:32.542Z,28.04
2023-08-07T11:15:32.416Z,27.82
2023-08-07T11:16:32.423Z,27.86
2023-08-07T11:17:32.458Z,28.27
2023-08-07T11:18:32.354Z,28.72
2023-08-07T11:19:32.400Z,29.07
2023-08-07T11:20:32.325Z,29.24
2023-08-07T11:21:34.005Z,29.40
2023-08-07T11:22:32.315Z,29.53
2023-08-07T11:23:32.379Z,29.65
2023-08-07T11:24:32.388Z,29.76
2023-08-07T11:25:32.296Z,29.86
2023-08-07T11:26:32.311Z,29.96
2023-08-07T11:27:32.392Z,30.10
2023-08-07T11:28:32.271Z,30.31
2023-08-07T11:29:32.206Z,30.44
2023-08-07T11:30:32.198Z,30.61
2023-08-07T11:31:32.225Z,30.77
2023-08-07T11:32:32.260Z,30.76
2023-08-07T11:33:32.218Z,30.77
2023-08-07T11:34:32.159Z,30.81
2023-08-07T11:35:32.138Z,30.88
2023-08-07T11:36:32.203Z,30.95
2023-08-07T11:37:32.159Z,31.07
2023-08-07T11:38:32.123Z,31.26
2023-08-07T11:39:32.113Z,31.20
2023-08-07T11:40:32.084Z,31.15
2023-08-07T11:41:32.165Z,31.30
2023-08-07T11:42:32.128Z,31.62
2023-08-07T11:43:32.079Z,31.97
2023-08-07T11:44:32.171Z,32.11
2023-08-07T11:45:32.103Z,32.35
2023-08-07T11:46:32.047Z,32.19
2023-08-07T11:47:32.088Z,31.70
2023-08-07T11:48:32.001Z,31.10
2023-08-07T11:49:32.138Z,31.55
2023-08-07T11:50:31.982Z,31.15
2023-08-07T11:51:32.038Z,30.65
2023-08-07T11:52:31.999Z,30.23
2023-08-07T11:53:31.953Z,29.77
2023-08-07T11:54:31.956Z,29.25
2023-08-07T11:55:33.601Z,29.42
2023-08-07T11:56:31.940Z,30.39
2023-08-07T11:57:31.915Z,31.22
2023-08-07T11:58:32.000Z,31.89
2023-08-07T11:59:31.886Z,31.85
2023-08-07T12:00:31.891Z,31.62
2023-08-07T12:01:32.052Z,32.02
2023-08-07T12:02:31.926Z,32.24
2023-08-07T12:03:31.942Z,32.59
2023-08-07T12:04:31.855Z,32.31
2023-08-07T12:05:31.867Z,31.59
2023-08-07T12:06:31.812Z,30.95
2023-08-07T12:07:33.852Z,30.31
2023-08-07T12:08:31.820Z,29.74
2023-08-07T12:09:31.813Z,29.18
2023-08-07T12:10:31.921Z,28.62
2023-08-07T12:11:31.961Z,28.19
2023-08-07T12:12:31.892Z,27.83
2023-08-07T12:13:31.748Z,27.47
2023-08-07T12:14:32.018Z,27.20
2023-08-07T12:15:31.741Z,27.00
2023-08-07T12:16:31.725Z,26.74
2023-08-07T12:17:32.920Z,26.56
2023-08-07T12:18:31.718Z,26.48
2023-08-07T12:19:31.697Z,26.63
2023-08-07T12:20:31.703Z,26.71
2023-08-07T12:21:31.650Z,26.98
2023-08-07T12:22:31.653Z,27.01
2023-08-07T12:23:31.640Z,27.37
2023-08-07T12:24:31.656Z,27.68
2023-08-07T12:25:31.622Z,27.71
2023-08-07T12:26:31.637Z,27.71
2023-08-07T12:27:31.584Z,27.50
2023-08-07T12:28:31.606Z,27.25
2023-08-07T12:29:31.658Z,26.98
2023-08-07T12:30:31.570Z,26.86
2023-08-07T12:31:31.676Z,27.23
2023-08-07T12:32:31.633Z,27.08
2023-08-07T12:33:31.551Z,27.10
2023-08-07T12:35:31.536Z,27.03
2023-08-07T12:36:31.508Z,27.16
2023-08-07T12:37:31.486Z,27.25
2023-08-07T12:38:31.537Z,28.84
2023-08-07T12:42:31.441Z,29.42
2023-08-07T12:43:31.440Z,29.07
2023-08-07T12:44:31.429Z,29.06
2023-08-07T12:46:32.085Z,29.30
2023-08-07T12:47:31.467Z,30.81
2023-08-07T12:48:31.365Z,30.91
2023-08-07T12:49:31.376Z,31.85
2023-08-07T12:50:31.427Z,32.12
2023-08-07T12:51:31.330Z,31.60
2023-08-07T12:52:31.418Z,31.36
2023-08-07T12:53:31.315Z,32.38
2023-08-07T12:54:31.314Z,31.23
2023-08-07T12:55:31.277Z,30.54
2023-08-07T12:56:31.330Z,29.90
2023-08-07T12:57:31.295Z,29.44